Time;durP1;ratioP1;P1;durP2;ratioP2;P2;SDS_P1;SDS_P2;PMS_P1;PMS_P2;Temp;Humidity;BMP_temperature;BMP_pressure;BME280_temperature;BME280_humidity;BME280_pressure;Samples;Min_cycle;Max_cycle;Signal;HPM_P1;HPM_P2
2022/09/09 03:00:30;;;;;;;2.37;0.80;;;24.90;43.70;;;;;;5974804;22;45834;-62
2022/09/09 03:02:56;;;;;;;1.42;0.70;;;24.90;43.80;;;;;;4942386;28;45423;-61
2022/09/09 03:05:21;;;;;;;1.90;0.80;;;24.90;43.80;;;;;;4929741;28;46086;-60
2022/09/09 03:07:47;;;;;;;2.27;0.80;;;24.90;43.80;;;;;;4936523;28;45619;-59
2022/09/09 03:10:13;;;;;;;3.70;0.77;;;24.80;43.70;;;;;;4904023;28;45441;-62
2022/09/09 03:12:39;;;;;;;2.53;0.85;;;24.80;43.80;;;;;;4870129;28;46172;-60
2022/09/09 03:15:05;;;;;;;1.60;0.90;;;24.90;43.80;;;;;;4919388;28;44761;-61
2022/09/09 03:17:31;;;;;;;3.38;0.70;;;24.90;43.80;;;;;;4915428;28;45209;-59
2022/09/09 03:19:58;;;;;;;1.70;0.80;;;24.80;44.40;;;;;;4903395;28;47091;-62
2022/09/09 03:22:25;;;;;;;3.07;0.80;;;24.80;43.80;;;;;;4899540;28;44916;-60
2022/09/09 03:24:51;;;;;;;3.00;0.77;;;24.80;44.40;;;;;;4931555;28;45378;-57
2022/09/09 03:27:17;;;;;;;1.85;0.70;;;24.80;43.80;;;;;;4918558;28;45340;-60
2022/09/09 03:29:42;;;;;;;1.87;0.80;;;24.80;43.80;;;;;;4934265;28;45908;-59
2022/09/09 03:32:10;;;;;;;2.40;0.90;;;24.80;43.90;;;;;;4932697;28;45382;-60
2022/09/09 03:34:38;;;;;;;1.50;0.90;;;24.80;43.90;;;;;;4940576;28;44947;-57
2022/09/09 03:37:05;;;;;;;1.48;0.73;;;24.80;44.00;;;;;;4940443;28;45069;-60
2022/09/09 03:39:31;;;;;;;2.22;0.80;;;24.80;44.00;;;;;;4941653;28;45317;-61
2022/09/09 03:41:56;;;;;;;1.97;0.80;;;24.80;44.00;;;;;;4931061;28;45695;-61
2022/09/09 03:44:22;;;;;;;2.17;0.77;;;24.80;44.00;;;;;;4935208;28;45337;-61
2022/09/09 03:46:47;;;;;;;2.63;0.80;;;24.80;44.00;;;;;;4934289;28;45502;-60
2022/09/09 03:49:13;;;;;;;1.60;0.83;;;24.70;44.00;;;;;;4932908;28;46280;-59
2022/09/09 03:51:40;;;;;;;2.67;0.83;;;24.70;44.00;;;;;;4928312;28;45129;-61
2022/09/09 03:54:08;;;;;;;2.70;0.80;;;24.70;44.00;;;;;;4929914;28;45437;-61
2022/09/09 03:56:34;;;;;;;1.93;0.73;;;24.70;44.10;;;;;;4932991;28;45566;-60
2022/09/09 03:59:00;;;;;;;1.40;0.77;;;24.70;44.10;;;;;;4934381;28;46264;-58
2022/09/09 04:01:25;;;;;;;5.03;1.00;;;24.70;44.10;;;;;;4927636;28;45236;-59
2022/09/09 04:03:52;;;;;;;3.10;0.93;;;24.70;44.10;;;;;;4932716;28;45085;-60
2022/09/09 04:06:18;;;;;;;1.90;0.90;;;24.70;44.20;;;;;;4932705;28;45878;-62
2022/09/09 04:08:44;;;;;;;1.70;0.70;;;24.70;44.20;;;;;;4932719;28;46064;-60
2022/09/09 04:11:10;;;;;;;1.35;0.70;;;24.60;44.20;;;;;;4927452;28;45650;-60
2022/09/09 04:13:40;;;;;;;2.10;0.80;;;24.70;44.30;;;;;;4928802;28;45530;-61
2022/09/09 04:16:05;;;;;;;2.73;0.83;;;24.60;44.30;;;;;;4932536;28;45541;-60
2022/09/09 04:18:31;;;;;;;4.18;1.00;;;24.60;44.30;;;;;;4933867;28;47210;-59
2022/09/09 04:20:57;;;;;;;2.35;0.75;;;24.60;44.30;;;;;;4930023;28;45180;-61
2022/09/09 04:23:24;;;;;;;1.38;0.75;;;24.60;44.40;;;;;;4932361;28;45523;-61
2022/09/09 04:25:53;;;;;;;2.95;0.85;;;24.60;44.40;;;;;;4932160;28;45057;-58
2022/09/09 04:28:19;;;;;;;3.30;0.90;;;24.60;44.40;;;;;;4930384;28;45322;-60
2022/09/09 04:30:45;;;;;;;2.20;0.90;;;24.60;44.50;;;;;;4929126;28;45433;-60
2022/09/09 04:33:10;;;;;;;3.00;0.90;;;24.60;44.50;;;;;;4931577;28;45545;-61
2022/09/09 04:35:39;;;;;;;1.67;0.77;;;24.60;44.50;;;;;;4930797;28;45456;-62
2022/09/09 04:38:05;;;;;;;1.85;0.70;;;24.60;44.50;;;;;;4934675;28;46219;-58
2022/09/09 04:40:30;;;;;;;1.73;0.90;;;24.60;44.50;;;;;;4932705;28;45164;-59
2022/09/09 04:43:00;;;;;;;2.33;0.85;;;24.60;44.60;;;;;;4933596;28;45332;-59
2022/09/09 04:45:26;;;;;;;1.17;0.70;;;24.50;44.60;;;;;;4931734;28;45327;-59
2022/09/09 04:47:52;;;;;;;2.03;0.80;;;24.50;44.70;;;;;;4934010;28;45213;-61
2022/09/09 04:50:18;;;;;;;1.42;0.70;;;24.50;44.70;;;;;;4931375;28;45751;-61
2022/09/09 04:52:44;;;;;;;1.10;0.70;;;24.50;44.70;;;;;;4932609;28;45578;-61
2022/09/09 04:55:09;;;;;;;1.40;0.70;;;24.50;44.70;;;;;;4933678;28;45244;-60
2022/09/09 04:57:35;;;;;;;2.20;0.80;;;24.60;44.70;;;;;;4933142;28;45879;-61
2022/09/09 05:00:02;;;;;;;1.67;0.60;;;24.60;44.80;;;;;;4929783;28;45670;-61
2022/09/09 05:02:27;;;;;;;3.25;0.80;;;24.60;44.80;;;;;;4932476;28;45988;-62
2022/09/09 05:04:53;;;;;;;1.83;0.77;;;24.50;44.80;;;;;;4934053;28;45563;-61
2022/09/09 05:07:19;;;;;;;1.37;0.77;;;24.50;44.80;;;;;;4936612;28;45261;-62
2022/09/09 05:09:45;;;;;;;3.47;1.00;;;24.50;44.80;;;;;;4914450;28;45019;-61
2022/09/09 05:12:11;;;;;;;2.60;0.80;;;24.50;44.80;;;;;;4932800;28;45465;-60
2022/09/09 05:14:37;;;;;;;2.28;1.00;;;24.50;44.80;;;;;;4934838;28;45558;-62
2022/09/09 05:17:03;;;;;;;2.37;0.77;;;24.50;44.80;;;;;;4942324;28;46056;-60
2022/09/09 05:19:30;;;;;;;1.55;0.80;;;24.50;44.80;;;;;;4923744;28;45714;-64
2022/09/09 05:21:56;;;;;;;2.85;0.90;;;24.50;44.80;;;;;;4932320;28;45538;-59
2022/09/09 05:24:23;;;;;;;1.90;1.00;;;24.50;44.90;;;;;;4944346;28;44847;-61
2022/09/09 05:26:48;;;;;;;3.50;0.82;;;24.50;44.90;;;;;;4944235;28;47126;-59
2022/09/09 05:29:14;;;;;;;2.85;0.85;;;24.50;45.40;;;;;;4936966;28;45289;-59
2022/09/09 05:31:40;;;;;;;2.03;0.80;;;24.50;44.80;;;;;;4919792;28;45666;-61
2022/09/09 05:34:05;;;;;;;3.20;0.82;;;24.50;44.80;;;;;;4940109;28;44904;-60
2022/09/09 05:36:31;;;;;;;2.77;0.90;;;24.50;44.90;;;;;;4935599;28;47066;-60
2022/09/09 05:38:57;;;;;;;2.28;0.85;;;24.50;44.90;;;;;;4936210;28;45538;-61
2022/09/09 05:41:22;;;;;;;3.28;0.90;;;24.50;44.90;;;;;;4941622;28;45209;-63
2022/09/09 05:43:48;;;;;;;1.83;0.63;;;24.50;45.00;;;;;;4935047;28;45192;-61
2022/09/09 05:46:16;;;;;;;1.83;0.93;;;24.50;45.60;;;;;;4929811;28;46211;-60
2022/09/09 05:48:43;;;;;;;2.70;0.88;;;24.50;45.00;;;;;;4939277;28;45243;-61
2022/09/09 05:51:12;;;;;;;1.30;0.80;;;24.50;45.00;;;;;;4940022;28;45458;-61
2022/09/09 05:53:38;;;;;;;2.38;0.90;;;24.50;45.10;;;;;;4935438;28;45363;-59
2022/09/09 05:56:05;;;;;;;1.70;0.90;;;24.50;45.10;;;;;;4944115;28;46126;-60
2022/09/09 05:58:32;;;;;;;2.75;0.93;;;24.50;45.10;;;;;;4939695;28;45246;-65
2022/09/09 06:01:04;;;;;;;2.70;0.90;;;24.60;45.10;;;;;;4919584;28;45587;-63
2022/09/09 06:03:30;;;;;;;2.97;0.88;;;24.50;45.10;;;;;;4937214;28;45101;-62
2022/09/09 06:06:00;;;;;;;3.10;0.93;;;24.60;45.50;;;;;;4923460;28;46205;-62
2022/09/09 06:08:25;;;;;;;1.90;0.90;;;24.60;45.10;;;;;;4947876;28;44944;-60
2022/09/09 06:10:52;;;;;;;1.67;0.90;;;24.60;45.10;;;;;;4936921;28;44812;-61
2022/09/09 06:13:17;;;;;;;2.13;0.85;;;24.60;45.70;;;;;;4941001;28;45424;-61
2022/09/09 06:15:52;;;;;;;2.88;0.95;;;24.70;45.10;;;;;;4941308;28;47069;-62
2022/09/09 06:18:18;;;;;;;2.33;0.95;;;24.70;45.10;;;;;;4958498;28;45535;-62
2022/09/09 06:20:55;;;;;;;4.15;1.10;;;24.80;45.20;;;;;;4935918;28;45041;-61
2022/09/09 06:23:20;;;;;;;2.25;1.10;;;24.80;45.10;;;;;;4941280;28;45873;-61
2022/09/09 06:25:46;;;;;;;3.00;1.10;;;24.80;45.20;;;;;;4936133;28;44944;-63
2022/09/09 06:28:11;;;;;;;2.00;1.00;;;24.80;45.10;;;;;;4941579;28;45101;-61
2022/09/09 06:30:38;;;;;;;3.50;1.10;;;24.90;45.00;;;;;;4935978;28;46375;-60
2022/09/09 06:33:04;;;;;;;4.28;1.30;;;24.90;45.00;;;;;;4944944;28;44776;-60
2022/09/09 06:35:29;;;;;;;3.47;1.20;;;24.90;45.00;;;;;;4931890;28;46295;-61
2022/09/09 06:37:55;;;;;;;3.13;1.30;;;24.90;44.90;;;;;;4937356;28;45073;-63
2022/09/09 06:40:20;;;;;;;3.37;1.20;;;25.00;44.90;;;;;;4956178;28;45262;-62
2022/09/09 06:42:46;;;;;;;2.70;1.10;;;25.00;44.90;;;;;;4945536;28;45269;-62
2022/09/09 06:45:11;;;;;;;1.70;0.97;;;25.00;44.80;;;;;;4934868;28;45354;-63
2022/09/09 06:47:37;;;;;;;3.37;1.17;;;25.10;44.80;;;;;;4931931;28;45326;-64
2022/09/09 06:50:03;;;;;;;2.85;1.33;;;25.00;44.80;;;;;;4929460;28;44951;-63
2022/09/09 06:52:28;;;;;;;1.88;1.10;;;25.10;44.80;;;;;;4933442;28;45723;-63
2022/09/09 06:54:54;;;;;;;4.47;1.20;;;25.10;44.80;;;;;;4935568;28;46201;-65
2022/09/09 06:57:20;;;;;;;2.72;1.00;;;25.10;44.80;;;;;;4943237;28;45054;-63
2022/09/09 06:59:45;;;;;;;2.80;1.00;;;25.10;44.80;;;;;;4954034;28;45646;-63
2022/09/09 07:02:11;;;;;;;1.98;0.88;;;25.10;44.80;;;;;;4950307;28;44733;-65
2022/09/09 07:04:36;;;;;;;3.42;1.00;;;25.20;44.90;;;;;;4936968;28;46427;-63
2022/09/09 07:07:02;;;;;;;2.17;1.00;;;25.20;44.90;;;;;;4935688;28;44947;-62
2022/09/09 07:09:31;;;;;;;3.20;1.13;;;25.20;44.90;;;;;;4935772;28;44806;-61
2022/09/09 07:11:59;;;;;;;4.38;1.00;;;25.20;44.80;;;;;;4932208;28;45320;-65
2022/09/09 07:14:24;;;;;;;3.20;1.20;;;25.30;44.80;;;;;;4934219;28;45454;-63
2022/09/09 07:16:50;;;;;;;4.90;1.00;;;25.30;44.70;;;;;;4945564;28;45536;-64
2022/09/09 07:19:16;;;;;;;2.30;0.80;;;25.30;44.60;;;;;;4936465;28;45128;-67
2022/09/09 07:21:41;;;;;;;2.87;0.80;;;25.40;44.50;;;;;;4935127;28;45020;-62
2022/09/09 07:24:09;;;;;;;2.90;0.90;;;25.30;44.50;;;;;;4949204;28;45406;-63
2022/09/09 07:26:35;;;;;;;2.38;0.82;;;25.40;44.50;;;;;;4935278;28;45491;-62
2022/09/09 07:29:01;;;;;;;3.85;0.90;;;25.40;44.50;;;;;;4939253;28;44745;-62
2022/09/09 07:31:32;;;;;;;2.73;0.77;;;25.40;44.60;;;;;;4939522;28;45571;-64
2022/09/09 07:33:59;;;;;;;3.33;0.70;;;25.40;44.50;;;;;;4941638;28;46098;-63
2022/09/09 07:36:29;;;;;;;2.63;1.00;;;25.50;44.20;;;;;;4953171;28;45492;-65
2022/09/09 07:39:14;;;;;;;2.17;0.97;;;25.50;44.10;;;;;;4938345;28;45581;-64
2022/09/09 07:41:44;;;;;;;3.03;0.90;;;25.50;44.00;;;;;;4937352;28;44962;-64
2022/09/09 07:44:12;;;;;;;2.92;0.75;;;25.50;43.90;;;;;;4937667;28;47420;-64
2022/09/09 07:46:39;;;;;;;2.28;0.75;;;25.60;43.80;;;;;;4946972;28;45543;-64
2022/09/09 07:49:05;;;;;;;1.95;0.75;;;25.60;43.70;;;;;;4951764;28;45419;-64
2022/09/09 07:51:32;;;;;;;3.92;0.82;;;25.60;43.70;;;;;;4923103;28;45762;-65
2022/09/09 07:54:01;;;;;;;3.10;0.87;;;25.70;43.60;;;;;;4957987;28;46028;-64
2022/09/09 07:56:27;;;;;;;3.85;0.82;;;25.70;43.60;;;;;;4939597;28;44791;-64
2022/09/09 07:58:54;;;;;;;1.97;0.77;;;25.80;43.50;;;;;;4936086;28;45620;-64
2022/09/09 08:01:25;;;;;;;2.08;0.70;;;25.70;43.50;;;;;;4937078;28;45227;-64
2022/09/09 08:03:58;;;;;;;2.10;0.80;;;25.80;43.50;;;;;;4905480;28;47069;-64
2022/09/09 08:06:26;;;;;;;3.08;0.80;;;25.90;43.50;;;;;;4938238;28;45487;-66
2022/09/09 08:08:52;;;;;;;2.87;1.00;;;25.90;43.40;;;;;;4943051;28;45076;-63
2022/09/09 08:11:18;;;;;;;3.70;0.73;;;25.90;43.30;;;;;;4907180;28;45051;-63
2022/09/09 08:13:44;;;;;;;3.57;0.80;;;25.90;43.10;;;;;;4936020;28;45873;-64
2022/09/09 08:16:11;;;;;;;2.50;0.80;;;26.00;43.10;;;;;;4949717;28;45476;-63
2022/09/09 08:18:38;;;;;;;3.85;0.70;;;26.00;43.10;;;;;;4937150;28;45501;-63
2022/09/09 08:21:13;;;;;;;1.55;0.60;;;26.00;43.00;;;;;;4932353;28;45217;-64
2022/09/09 08:23:42;;;;;;;4.57;0.75;;;26.00;43.00;;;;;;4915464;28;45426;-65
2022/09/09 08:26:22;;;;;;;2.10;0.60;;;26.10;43.00;;;;;;4933884;28;44630;-65
2022/09/09 08:28:48;;;;;;;2.67;0.70;;;26.10;42.90;;;;;;4946381;28;45499;-64
2022/09/09 08:31:18;;;;;;;2.42;0.80;;;26.10;42.80;;;;;;4936879;28;45359;-65
2022/09/09 08:33:45;;;;;;;3.00;0.90;;;26.20;42.80;;;;;;4924308;28;45475;-65
2022/09/09 08:36:13;;;;;;;2.60;0.80;;;26.20;42.70;;;;;;4920855;28;45208;-67
2022/09/09 08:38:38;;;;;;;2.15;0.80;;;26.20;42.60;;;;;;4927879;28;45384;-64
2022/09/09 08:41:12;;;;;;;2.13;0.60;;;26.30;42.50;;;;;;4912995;28;45320;-64
2022/09/09 08:43:37;;;;;;;2.42;0.73;;;26.30;42.50;;;;;;4899493;28;45859;-63
2022/09/09 08:46:25;;;;;;;0.97;0.60;;;26.30;42.50;;;;;;4902134;28;45353;-62
2022/09/09 08:48:58;;;;;;;2.90;0.68;;;26.40;42.90;;;;;;4936155;28;45408;-63
2022/09/09 08:51:25;;;;;;;3.30;0.80;;;26.40;42.20;;;;;;4923076;28;44870;-62
2022/09/09 08:53:51;;;;;;;1.67;0.77;;;26.40;42.10;;;;;;4902442;28;45943;-64
2022/09/09 08:56:18;;;;;;;3.47;0.80;;;26.40;41.90;;;;;;4897115;28;46211;-65
2022/09/09 08:58:48;;;;;;;1.30;0.60;;;26.40;41.80;;;;;;4912419;28;45072;-64
2022/09/09 09:01:41;;;;;;;1.57;0.50;;;26.40;41.80;;;;;;4931306;28;45390;-63
2022/09/09 09:04:25;;;;;;;2.47;0.85;;;26.40;41.60;;;;;;4937215;28;45202;-62
2022/09/09 09:07:33;;;;;;;1.77;0.60;;;26.40;41.60;;;;;;4939149;28;45421;-63
2022/09/09 09:10:22;;;;;;;3.10;0.77;;;26.40;41.60;;;;;;4937980;28;45509;-62
2022/09/09 09:12:48;;;;;;;2.45;0.50;;;26.50;41.60;;;;;;4926264;28;45367;-62
2022/09/09 09:15:18;;;;;;;2.25;0.60;;;26.50;41.50;;;;;;4938576;28;45252;-63
2022/09/09 09:17:43;;;;;;;1.20;0.50;;;26.50;41.50;;;;;;4937812;28;45242;-63
2022/09/09 09:20:16;;;;;;;2.77;0.67;;;26.50;41.40;;;;;;4944524;28;45352;-63
2022/09/09 09:22:50;;;;;;;3.17;0.55;;;26.50;41.30;;;;;;4919475;28;45140;-64
2022/09/09 09:25:19;;;;;;;2.22;0.50;;;26.50;41.20;;;;;;4937469;28;46983;-65
2022/09/09 09:28:06;;;;;;;2.20;0.60;;;26.50;41.10;;;;;;4943184;28;45342;-63
2022/09/09 09:30:39;;;;;;;2.33;0.50;;;26.60;41.10;;;;;;4951517;28;45850;-64
2022/09/09 09:33:22;;;;;;;1.60;0.70;;;26.60;41.00;;;;;;4938574;28;45440;-63
2022/09/09 09:35:50;;;;;;;2.03;0.60;;;26.60;40.90;;;;;;4930745;28;45364;-64
2022/09/09 09:38:22;;;;;;;1.45;0.50;;;26.50;40.80;;;;;;4906621;28;45675;-64
2022/09/09 09:40:57;;;;;;;2.35;0.60;;;26.60;40.90;;;;;;4944971;28;45758;-64
2022/09/09 09:43:34;;;;;;;2.00;0.52;;;26.60;40.80;;;;;;4919603;28;45616;-65
2022/09/09 09:45:59;;;;;;;2.42;0.80;;;26.60;40.70;;;;;;4955566;28;45634;-62
2022/09/09 09:48:26;;;;;;;2.53;0.70;;;26.60;40.70;;;;;;4937175;28;45241;-64
2022/09/09 09:50:55;;;;;;;1.97;0.70;;;26.60;40.80;;;;;;4936794;28;45299;-63
2022/09/09 09:53:25;;;;;;;2.03;0.57;;;26.70;40.80;;;;;;4926506;28;45421;-65
2022/09/09 09:56:01;;;;;;;2.00;0.60;;;26.70;40.80;;;;;;4934962;28;45467;-63
2022/09/09 09:58:31;;;;;;;3.97;0.50;;;26.70;40.90;;;;;;4932605;28;45151;-63
2022/09/09 10:00:56;;;;;;;2.17;0.50;;;26.70;40.90;;;;;;4936238;28;45232;-64
2022/09/09 10:03:29;;;;;;;1.23;0.50;;;26.70;40.80;;;;;;4949428;28;45426;-65
2022/09/09 10:05:56;;;;;;;2.25;0.63;;;26.80;40.80;;;;;;4936510;28;47227;-64
2022/09/09 10:08:22;;;;;;;1.77;0.43;;;26.80;40.70;;;;;;4911735;28;44707;-64
2022/09/09 10:11:58;;;;;;;3.55;0.60;;;26.80;40.60;;;;;;4922573;28;45630;-64
2022/09/09 10:14:39;;;;;;;1.75;0.68;;;26.90;40.70;;;;;;4852305;29;45544;-64
2022/09/09 10:17:27;;;;;;;1.85;0.60;;;26.90;40.60;;;;;;4922029;28;45153;-64
2022/09/09 10:20:04;;;;;;;1.65;0.45;;;26.90;40.50;;;;;;4931808;28;44841;-65
2022/09/09 10:22:34;;;;;;;2.35;0.60;;;26.90;40.40;;;;;;4929406;28;45746;-65
2022/09/09 10:25:15;;;;;;;1.60;0.60;;;27.00;40.20;;;;;;4933104;28;45298;-65
2022/09/09 10:28:40;;;;;;;2.80;0.40;;;27.00;40.10;;;;;;4936364;28;46162;-64
2022/09/09 10:31:12;;;;;;;2.22;0.70;;;27.10;40.00;;;;;;4837318;29;45001;-65
2022/09/09 10:33:58;;;;;;;1.50;0.47;;;27.10;39.60;;;;;;4919064;28;45371;-66
2022/09/09 10:36:25;;;;;;;2.10;0.60;;;27.10;39.60;;;;;;4931452;28;45374;-64
2022/09/09 10:38:59;;;;;;;1.60;0.50;;;27.10;39.40;;;;;;4930631;28;46018;-65
2022/09/09 10:41:36;;;;;;;2.58;0.70;;;27.10;39.20;;;;;;4913315;28;45556;-64
2022/09/09 10:44:06;;;;;;;3.72;0.57;;;27.10;39.10;;;;;;4932019;28;45351;-65
2022/09/09 10:46:42;;;;;;;1.53;0.50;;;27.10;38.90;;;;;;4930531;28;46312;-64
2022/09/09 10:49:15;;;;;;;3.55;0.80;;;27.10;38.90;;;;;;4947529;28;47623;-64
2022/09/09 10:51:49;;;;;;;3.08;0.73;;;27.10;38.80;;;;;;4930813;28;45820;-65
2022/09/09 10:54:22;;;;;;;1.75;0.60;;;27.10;39.00;;;;;;4946556;28;45667;-64
2022/09/09 10:56:53;;;;;;;3.58;0.50;;;27.10;38.90;;;;;;4927964;28;45128;-64
2022/09/09 10:59:26;;;;;;;3.05;0.70;;;27.00;38.90;;;;;;4925837;28;66111;-65
2022/09/09 11:02:27;;;;;;;2.63;0.68;;;27.00;38.90;;;;;;4911803;28;45625;-61
2022/09/09 11:05:14;;;;;;;2.03;0.60;;;27.10;38.90;;;;;;4930726;28;45568;-64
2022/09/09 11:07:52;;;;;;;1.70;0.60;;;27.10;38.90;;;;;;4929724;28;45688;-62
2022/09/09 11:10:39;;;;;;;3.35;0.70;;;27.00;38.80;;;;;;4946233;28;47095;-63
2022/09/09 11:13:09;;;;;;;2.08;0.57;;;27.10;39.00;;;;;;4931334;28;45313;-63
2022/09/09 11:15:40;;;;;;;2.00;0.55;;;27.10;38.80;;;;;;4914006;28;45849;-64
2022/09/09 11:18:06;;;;;;;1.60;0.43;;;27.10;38.60;;;;;;4914469;28;46274;-63
2022/09/09 11:20:32;;;;;;;2.30;0.77;;;27.10;38.60;;;;;;4945298;28;45463;-62
2022/09/09 11:23:20;;;;;;;3.00;0.60;;;27.10;38.40;;;;;;4913552;28;45797;-62
2022/09/09 11:25:52;;;;;;;1.98;0.68;;;27.10;38.30;;;;;;4946567;28;45743;-62
2022/09/09 11:28:30;;;;;;;4.18;0.65;;;27.20;38.40;;;;;;4927198;28;45528;-65
2022/09/09 11:31:22;;;;;;;3.13;0.60;;;27.20;38.30;;;;;;4943325;28;46133;-63
2022/09/09 11:34:10;;;;;;;3.75;0.85;;;27.20;38.20;;;;;;4945551;28;45005;-63
2022/09/09 11:37:06;;;;;;;3.15;0.70;;;27.30;38.10;;;;;;4930062;28;45691;-63
2022/09/09 11:39:41;;;;;;;4.90;0.73;;;27.30;38.00;;;;;;4912164;28;45071;-62
2022/09/09 11:42:14;;;;;;;3.88;0.60;;;27.30;38.00;;;;;;4928534;28;46201;-63
2022/09/09 11:44:40;;;;;;;1.23;0.40;;;27.30;37.90;;;;;;4931911;28;44978;-64
2022/09/09 11:47:24;;;;;;;0.38;0.22;;;27.10;38.50;;;;;;4932040;28;45625;-63
2022/09/09 11:49:50;;;;;;;2.13;0.63;;;26.90;38.20;;;;;;4930549;28;45895;-62
2022/09/09 11:52:39;;;;;;;2.08;0.50;;;26.80;38.40;;;;;;4913313;28;49319;-61
2022/09/09 11:55:26;;;;;;;1.52;0.30;;;26.70;37.70;;;;;;4930086;28;46238;-62
2022/09/09 11:57:58;;;;;;;1.75;0.40;;;26.70;37.60;;;;;;4914767;28;45390;-62
2022/09/09 12:00:40;;;;;;;2.80;0.43;;;26.70;37.90;;;;;;4932006;28;45361;-63
2022/09/09 12:03:05;;;;;;;4.47;0.40;;;26.70;37.80;;;;;;4918839;28;46222;-63
2022/09/09 12:05:39;;;;;;;2.15;0.45;;;26.60;38.70;;;;;;4916193;28;45581;-64
2022/09/09 12:08:05;;;;;;;1.45;0.30;;;26.70;38.60;;;;;;4941875;28;45538;-63
2022/09/09 12:10:39;;;;;;;1.85;0.43;;;26.60;38.80;;;;;;4930161;28;45683;-63
2022/09/09 12:13:24;;;;;;;2.83;0.38;;;26.70;38.10;;;;;;4943007;28;46906;-62
2022/09/09 12:15:53;;;;;;;3.28;0.43;;;26.60;38.00;;;;;;4934784;28;45199;-63
2022/09/09 12:18:31;;;;;;;4.25;0.45;;;26.60;38.20;;;;;;4916221;28;45541;-62
2022/09/09 12:21:38;;;;;;;1.45;0.40;;;26.60;38.20;;;;;;4938875;28;45698;-62
2022/09/09 12:24:09;;;;;;;2.67;0.52;;;26.60;37.70;;;;;;4935587;28;46038;-64
2022/09/09 12:26:45;;;;;;;1.73;0.60;;;26.70;38.30;;;;;;4925411;28;45499;-62
2022/09/09 12:29:34;;;;;;;2.15;0.45;;;26.70;38.10;;;;;;4940573;28;45218;-62
2022/09/09 12:32:07;;;;;;;0.82;0.40;;;26.70;37.40;;;;;;4925005;28;45788;-62
2022/09/09 12:34:43;;;;;;;2.33;0.35;;;26.70;37.50;;;;;;4922630;28;45590;-62
2022/09/09 12:37:32;;;;;;;3.65;0.32;;;26.70;37.40;;;;;;4916323;28;45711;-62
2022/09/09 12:39:59;;;;;;;0.38;0.20;;;26.60;37.60;;;;;;4941488;28;45828;-63
2022/09/09 12:42:24;;;;;;;1.85;0.60;;;26.60;37.70;;;;;;4940376;28;45291;-63
2022/09/09 12:44:51;;;;;;;2.33;0.45;;;26.60;37.80;;;;;;4941750;28;46133;-65
2022/09/09 12:47:17;;;;;;;2.03;0.40;;;26.60;38.00;;;;;;4921834;28;46177;-61
2022/09/09 12:49:43;;;;;;;1.35;0.30;;;26.50;38.20;;;;;;4901901;28;45278;-62
2022/09/09 12:52:17;;;;;;;1.77;0.40;;;26.50;38.50;;;;;;4930848;28;47110;-63
2022/09/09 12:54:46;;;;;;;4.05;0.50;;;26.40;39.80;;;;;;4921038;28;46472;-65
2022/09/09 12:57:12;;;;;;;3.72;0.50;;;26.40;39.40;;;;;;4920911;28;46136;-64
2022/09/09 12:59:39;;;;;;;3.95;0.38;;;26.40;39.50;;;;;;4921983;28;45284;-63
2022/09/09 13:02:21;;;;;;;3.33;0.40;;;26.40;39.70;;;;;;4920326;28;45619;-67
2022/09/09 13:04:46;;;;;;;1.55;0.30;;;26.40;39.80;;;;;;4938174;28;46066;-64
2022/09/09 13:07:13;;;;;;;1.80;0.50;;;26.50;39.70;;;;;;4906779;28;46526;-64
2022/09/09 13:09:39;;;;;;;1.35;0.30;;;26.50;39.90;;;;;;4938085;28;45348;-63
2022/09/09 13:12:07;;;;;;;2.45;0.40;;;26.50;39.90;;;;;;4914526;28;45788;-64
2022/09/09 13:14:37;;;;;;;4.22;0.30;;;26.50;40.00;;;;;;4931295;28;45976;-64
2022/09/09 13:17:03;;;;;;;2.60;0.38;;;26.50;40.10;;;;;;4914961;28;45929;-64
2022/09/09 13:19:31;;;;;;;1.33;0.15;;;26.50;40.00;;;;;;4935831;28;45241;-65
2022/09/09 13:21:57;;;;;;;1.42;0.38;;;26.50;40.10;;;;;;4914740;28;45609;-64
2022/09/09 13:24:27;;;;;;;3.10;0.43;;;26.50;40.10;;;;;;4921269;28;45236;-61
2022/09/09 13:26:57;;;;;;;2.10;0.32;;;26.60;40.30;;;;;;4938392;28;45656;-63
2022/09/09 13:29:22;;;;;;;1.33;0.38;;;26.60;40.40;;;;;;4937040;28;45846;-64
2022/09/09 13:31:48;;;;;;;2.55;0.47;;;26.50;40.40;;;;;;4936669;28;46315;-64
2022/09/09 13:34:27;;;;;;;1.10;0.30;;;26.50;40.60;;;;;;4912240;28;46373;-63
2022/09/09 13:36:52;;;;;;;1.33;0.35;;;26.50;40.60;;;;;;4926782;28;45394;-64
2022/09/09 13:39:18;;;;;;;1.65;0.40;;;26.50;40.80;;;;;;4907059;28;45288;-64
2022/09/09 13:41:44;;;;;;;0.90;0.30;;;26.50;40.90;;;;;;4918165;28;45451;-64
2022/09/09 13:44:23;;;;;;;2.28;0.45;;;26.50;40.90;;;;;;4932024;28;46190;-63
2022/09/09 13:46:59;;;;;;;1.60;0.30;;;26.50;41.20;;;;;;4917620;28;45528;-64
2022/09/09 13:49:25;;;;;;;1.88;0.40;;;26.50;41.20;;;;;;4916616;28;45552;-64
2022/09/09 13:51:52;;;;;;;1.88;0.50;;;26.40;41.10;;;;;;4927609;28;45821;-63
2022/09/09 13:54:21;;;;;;;2.78;0.35;;;26.40;41.20;;;;;;4934464;28;45625;-64
2022/09/09 13:56:49;;;;;;;2.53;0.40;;;26.40;41.30;;;;;;4930131;28;45587;-64
2022/09/09 13:59:16;;;;;;;0.68;0.28;;;26.40;41.30;;;;;;4938422;28;45331;-64
2022/09/09 14:01:42;;;;;;;1.48;0.40;;;26.40;41.30;;;;;;4932975;28;44789;-64
2022/09/09 14:04:08;;;;;;;2.08;0.50;;;26.40;41.50;;;;;;4930661;28;45408;-63
2022/09/09 14:06:37;;;;;;;1.63;0.55;;;26.40;41.60;;;;;;4929938;28;45242;-64
2022/09/09 14:09:02;;;;;;;1.67;0.20;;;26.40;41.60;;;;;;4930771;28;45310;-63
2022/09/09 14:11:28;;;;;;;1.15;0.28;;;26.40;41.60;;;;;;4928917;28;45666;-64
2022/09/09 14:13:54;;;;;;;1.88;0.30;;;26.40;41.60;;;;;;4917393;28;46954;-64
2022/09/09 14:16:21;;;;;;;2.13;0.43;;;26.40;41.70;;;;;;4909526;28;45594;-63
2022/09/09 14:18:47;;;;;;;1.33;0.60;;;26.40;41.70;;;;;;4917049;28;45854;-63
2022/09/09 14:21:12;;;;;;;2.08;0.30;;;26.40;41.80;;;;;;4912731;28;44950;-63
2022/09/09 14:23:38;;;;;;;0.68;0.20;;;26.40;41.90;;;;;;4915131;28;45866;-63
2022/09/09 14:26:05;;;;;;;1.45;0.40;;;26.40;41.90;;;;;;4915526;28;45733;-63
2022/09/09 14:28:31;;;;;;;2.50;0.28;;;26.40;42.00;;;;;;4897710;28;45558;-63
2022/09/09 14:31:00;;;;;;;1.90;0.50;;;26.40;42.00;;;;;;4899218;28;45635;-63
2022/09/09 14:33:26;;;;;;;1.02;0.30;;;26.40;42.10;;;;;;4928630;28;45551;-63
2022/09/09 14:35:59;;;;;;;1.80;0.50;;;26.40;42.10;;;;;;4926794;28;45412;-64
2022/09/09 14:38:25;;;;;;;2.83;0.40;;;26.40;42.20;;;;;;4911110;28;45799;-63
2022/09/09 14:40:50;;;;;;;2.35;0.55;;;26.30;42.10;;;;;;4926553;28;45256;-63
2022/09/09 14:43:16;;;;;;;0.80;0.40;;;26.30;42.10;;;;;;4927588;28;45931;-63
2022/09/09 14:45:43;;;;;;;2.88;0.30;;;26.30;42.20;;;;;;4914752;28;45443;-63
2022/09/09 14:48:08;;;;;;;1.63;0.40;;;26.30;42.20;;;;;;4915629;28;45112;-63
2022/09/09 14:50:36;;;;;;;0.60;0.30;;;26.30;42.20;;;;;;4913445;28;45371;-63
2022/09/09 14:53:02;;;;;;;2.08;0.50;;;26.30;42.20;;;;;;4928507;28;45829;-63
2022/09/09 14:55:29;;;;;;;1.08;0.40;;;26.30;42.30;;;;;;4927143;28;45815;-63
2022/09/09 14:57:54;;;;;;;1.13;0.47;;;26.30;42.30;;;;;;4913986;28;45336;-63
2022/09/09 15:00:20;;;;;;;3.08;0.70;;;26.30;42.30;;;;;;4914789;28;44922;-63
2022/09/09 15:02:45;;;;;;;0.90;0.40;;;26.30;42.40;;;;;;4931986;28;46745;-63
2022/09/09 15:05:11;;;;;;;1.52;0.52;;;26.30;42.40;;;;;;4936476;28;44702;-63
2022/09/09 15:07:37;;;;;;;0.85;0.45;;;26.30;42.40;;;;;;4935548;28;44753;-62
2022/09/09 15:10:03;;;;;;;1.23;0.60;;;26.30;42.50;;;;;;4933606;28;45793;-63
2022/09/09 15:12:29;;;;;;;1.35;0.40;;;26.30;42.50;;;;;;4931648;28;45275;-64
2022/09/09 15:14:55;;;;;;;1.45;0.43;;;26.30;42.50;;;;;;4933235;28;45274;-64
2022/09/09 15:17:21;;;;;;;1.38;0.50;;;26.20;42.50;;;;;;4931136;28;46222;-63
2022/09/09 15:19:47;;;;;;;2.92;0.50;;;26.30;42.60;;;;;;4934040;28;45247;-63
2022/09/09 15:22:13;;;;;;;1.25;0.40;;;26.20;42.50;;;;;;4934135;28;45964;-63
2022/09/09 15:24:38;;;;;;;1.67;0.40;;;26.20;42.50;;;;;;4915604;28;45406;-64
2022/09/09 15:27:04;;;;;;;1.90;0.50;;;26.20;42.60;;;;;;4916537;28;45780;-62
2022/09/09 15:29:29;;;;;;;1.27;0.47;;;26.20;42.60;;;;;;4935397;28;45269;-63
2022/09/09 15:31:55;;;;;;;0.88;0.40;;;26.20;42.60;;;;;;4932284;28;45635;-63
2022/09/09 15:34:21;;;;;;;0.75;0.30;;;26.20;42.60;;;;;;4934188;28;45317;-64
2022/09/09 15:36:46;;;;;;;2.28;0.38;;;26.20;42.60;;;;;;4912424;28;45578;-63
2022/09/09 15:39:15;;;;;;;1.58;0.57;;;26.20;42.60;;;;;;4937373;28;46240;-66
2022/09/09 15:41:44;;;;;;;1.45;0.40;;;26.30;42.70;;;;;;4912104;28;45621;-63
2022/09/09 15:44:11;;;;;;;1.42;0.50;;;26.20;42.60;;;;;;4936682;28;45741;-63
2022/09/09 15:46:42;;;;;;;3.00;0.70;;;26.20;42.60;;;;;;4936057;28;45971;-63
2022/09/09 15:49:10;;;;;;;1.30;0.50;;;26.20;42.80;;;;;;4917647;28;45580;-63
2022/09/09 15:51:37;;;;;;;1.10;0.40;;;26.20;42.80;;;;;;4922017;28;45855;-63
2022/09/09 15:54:02;;;;;;;2.53;0.60;;;26.20;42.80;;;;;;4936859;28;45236;-63
2022/09/09 15:56:30;;;;;;;0.80;0.40;;;26.20;42.90;;;;;;4937044;28;44711;-63
2022/09/09 15:58:56;;;;;;;1.17;0.50;;;26.20;42.90;;;;;;4938344;28;45171;-63
2022/09/09 16:01:22;;;;;;;0.88;0.35;;;26.20;42.90;;;;;;4932460;28;45978;-63